createdAt,value
2022-11-19T00:02:24.012Z,99901.53
2022-11-19T00:07:21.021Z,99924.75
2022-11-19T00:12:36.262Z,99892.81
2022-11-19T00:17:34.114Z,99979.59
2022-11-19T00:22:31.183Z,100000.13
2022-11-19T00:27:28.145Z,99981.00
2022-11-19T00:32:25.499Z,99966.47
2022-11-19T00:37:23.388Z,99993.38
2022-11-19T00:42:21.067Z,99949.66
2022-11-19T00:47:20.853Z,99977.78
2022-11-19T00:52:20.790Z,99950.84
2022-11-19T00:57:18.772Z,100004.22
2022-11-19T01:02:16.043Z,100009.13
2022-11-19T01:07:13.403Z,100009.59
2022-11-19T01:12:10.491Z,100014.66
2022-11-19T01:17:08.375Z,99981.38
2022-11-19T01:22:05.314Z,100052.41
2022-11-19T01:27:02.302Z,100084.97
2022-11-19T01:31:59.346Z,100077.03
2022-11-19T01:36:57.049Z,100000.53
2022-11-19T01:41:54.212Z,100001.75
2022-11-19T01:46:51.345Z,100107.69
2022-11-19T01:51:52.039Z,100108.75
2022-11-19T01:56:49.955Z,100134.13
2022-11-19T02:01:47.315Z,100123.75
2022-11-19T02:06:45.645Z,100117.97
2022-11-19T02:12:13.337Z,100128.53
2022-11-19T02:17:19.234Z,100124.88
2022-11-19T02:22:41.552Z,100151.00
2022-11-19T02:28:14.839Z,100176.03
2022-11-19T02:33:16.979Z,100169.06
2022-11-19T02:38:24.123Z,100175.53
2022-11-19T02:43:25.962Z,100156.66
2022-11-19T02:48:29.979Z,100191.94
2022-11-19T02:53:26.956Z,100153.50
2022-11-19T02:58:38.620Z,100210.44
2022-11-19T03:03:54.690Z,100209.91
2022-11-19T03:08:51.932Z,100213.03
2022-11-19T03:14:13.462Z,100183.72
2022-11-19T03:19:23.769Z,100269.88
2022-11-19T03:24:24.346Z,100268.50
2022-11-19T03:29:25.183Z,100266.19
2022-11-19T03:34:25.272Z,100311.19
2022-11-19T03:39:23.177Z,100318.59
2022-11-19T03:44:25.816Z,100319.53
2022-11-19T03:49:31.042Z,100283.19
2022-11-19T03:54:28.311Z,100315.56
2022-11-19T03:59:29.687Z,100306.31
2022-11-19T04:04:36.879Z,100333.22
2022-11-19T04:09:34.392Z,100326.31
2022-11-19T04:14:31.708Z,100292.97
2022-11-19T04:19:29.404Z,100346.06
2022-11-19T04:24:26.456Z,100311.63
2022-11-19T04:29:23.433Z,100328.72
2022-11-19T04:34:20.511Z,100377.34
2022-11-19T04:39:18.534Z,100382.41
2022-11-19T04:44:15.864Z,100394.31
2022-11-19T04:49:13.026Z,100371.56
2022-11-19T04:54:10.012Z,100406.06
2022-11-19T04:59:07.755Z,100391.97
2022-11-19T05:04:05.051Z,100313.66
2022-11-19T05:09:02.167Z,100392.03
2022-11-19T05:13:59.281Z,100377.53
2022-11-19T05:18:57.330Z,100340.09
2022-11-19T05:23:56.472Z,100365.03
2022-11-19T05:28:53.513Z,100482.44
2022-11-19T05:33:52.679Z,100497.91
2022-11-19T05:38:50.586Z,100509.00
2022-11-19T05:43:47.622Z,100474.38
2022-11-19T05:48:45.140Z,100459.19
2022-11-19T05:53:42.500Z,100426.78
2022-11-19T05:58:40.356Z,100546.47
2022-11-19T06:03:37.789Z,100551.44
2022-11-19T06:08:34.691Z,100543.97
2022-11-19T06:13:31.799Z,100551.03
2022-11-19T06:18:29.929Z,100469.25
2022-11-19T06:23:27.700Z,100566.91
2022-11-19T06:28:24.730Z,100571.13
2022-11-19T06:33:22.035Z,100618.84
2022-11-19T06:38:20.909Z,100640.22
2022-11-19T06:43:27.172Z,100554.34
2022-11-19T06:48:24.602Z,100571.16
2022-11-19T06:53:22.983Z,100599.00
2022-11-19T06:58:20.202Z,100623.63
2022-11-19T07:03:18.693Z,100656.97
2022-11-19T07:08:21.493Z,100667.66
2022-11-19T07:13:19.480Z,100691.28
2022-11-19T07:18:17.687Z,100633.88
2022-11-19T07:23:14.878Z,100679.44
2022-11-19T07:28:14.885Z,100624.72
2022-11-19T07:33:14.771Z,100718.59
2022-11-19T07:38:12.183Z,100735.09
2022-11-19T07:43:09.511Z,100742.25
2022-11-19T07:48:08.211Z,100682.09
2022-11-19T07:53:08.740Z,100733.22
2022-11-19T07:58:06.555Z,100789.44
2022-11-19T08:03:05.217Z,100767.66
2022-11-19T08:08:02.817Z,100761.06
2022-11-19T08:13:05.488Z,100747.88
2022-11-19T08:18:16.839Z,100727.31
2022-11-19T08:23:16.720Z,100749.75
2022-11-19T08:28:14.826Z,100792.22
2022-11-19T08:33:11.901Z,100766.38
2022-11-19T08:38:12.366Z,100779.91
2022-11-19T08:43:09.487Z,100836.13
2022-11-19T08:48:09.865Z,100803.56
2022-11-19T08:53:07.541Z,100750.31
2022-11-19T08:58:07.589Z,100809.78
2022-11-19T09:03:06.514Z,100737.06
2022-11-19T09:08:09.654Z,100789.47
2022-11-19T09:13:23.449Z,100845.28
2022-11-19T09:18:33.856Z,100830.53
2022-11-19T09:23:35.867Z,100839.94
2022-11-19T09:28:36.650Z,100748.38
2022-11-19T09:33:42.034Z,100815.53
2022-11-19T09:38:40.508Z,100797.31
2022-11-19T09:43:53.976Z,100847.69
2022-11-19T09:48:55.153Z,100821.97
2022-11-19T09:53:57.083Z,100829.34
2022-11-19T09:58:57.051Z,100769.88
2022-11-19T10:03:56.553Z,100789.78
2022-11-19T10:09:26.754Z,100831.22
2022-11-19T10:14:47.564Z,100820.59
2022-11-19T10:19:59.742Z,100852.16
2022-11-19T10:25:04.720Z,100854.47
2022-11-19T10:30:06.541Z,100855.53
2022-11-19T10:35:16.879Z,100799.09
2022-11-19T10:40:20.534Z,100828.91
2022-11-19T10:45:21.934Z,100830.97
2022-11-19T10:50:23.717Z,100834.97
2022-11-19T10:55:28.856Z,100763.94
2022-11-19T11:00:26.579Z,100762.44
2022-11-19T11:05:29.331Z,100834.50
2022-11-19T11:10:34.804Z,100862.97
2022-11-19T11:15:32.822Z,100858.53
2022-11-19T11:20:32.762Z,100769.59
2022-11-19T11:25:38.993Z,100748.41
2022-11-19T11:30:36.508Z,100731.06
2022-11-19T11:35:38.037Z,100837.38
2022-11-19T11:40:35.668Z,100833.66
2022-11-19T11:45:35.300Z,100798.06
2022-11-19T11:50:34.941Z,100764.38
2022-11-19T11:55:33.060Z,100824.56
2022-11-19T12:00:38.901Z,100807.81
2022-11-19T12:05:51.077Z,100828.72
2022-11-19T12:10:56.304Z,100746.03
2022-11-19T12:16:05.415Z,100794.09
2022-11-19T12:21:11.728Z,100757.78
2022-11-19T12:26:20.281Z,100791.50
2022-11-19T12:31:32.090Z,100797.06
2022-11-19T12:36:38.371Z,100755.00
2022-11-19T12:41:58.518Z,100785.50
2022-11-19T12:47:00.723Z,100830.66
2022-11-19T12:52:08.630Z,100857.88
2022-11-19T12:57:33.100Z,100840.03
2022-11-19T13:02:46.295Z,100819.06
2022-11-19T13:07:47.603Z,100772.50
2022-11-19T13:12:50.569Z,100836.25
2022-11-19T13:17:52.584Z,100895.84
2022-11-19T13:22:55.507Z,100844.41
2022-11-19T13:27:58.068Z,100895.38
2022-11-19T13:33:05.400Z,100795.97
2022-11-19T13:38:12.871Z,100878.94
2022-11-19T13:43:33.118Z,100892.75
2022-11-19T13:48:34.555Z,100925.75
2022-11-19T13:53:38.532Z,100902.44
2022-11-19T13:58:37.795Z,100894.97
2022-11-19T14:03:53.603Z,100938.97
2022-11-19T14:09:08.005Z,100937.91
2022-11-19T14:14:32.320Z,100893.25
2022-11-19T14:19:53.001Z,100949.63
2022-11-19T14:25:13.905Z,100956.72
2022-11-19T14:30:19.890Z,100900.94
2022-11-19T14:35:38.196Z,100949.78
2022-11-19T14:40:42.468Z,100916.16
2022-11-19T14:46:19.652Z,100929.03
2022-11-19T14:51:18.541Z,100928.91
2022-11-19T14:56:22.321Z,100948.75
2022-11-19T15:01:23.321Z,100965.06
2022-11-19T15:06:21.258Z,100949.38
2022-11-19T15:11:20.752Z,100909.53
2022-11-19T15:16:21.972Z,100896.69
2022-11-19T15:21:42.303Z,100821.81
2022-11-19T15:27:58.731Z,100884.22
2022-11-19T15:33:46.775Z,100970.88
2022-11-19T15:38:50.438Z,100869.72
2022-11-19T15:43:51.456Z,100961.94
2022-11-19T15:49:00.340Z,100954.19
2022-11-19T15:54:02.137Z,100995.03
2022-11-19T15:59:00.990Z,100968.16
2022-11-19T16:03:59.827Z,100895.50
2022-11-19T16:09:02.899Z,100886.88
2022-11-19T16:14:28.315Z,100912.16
2022-11-19T16:19:26.372Z,100978.81
2022-11-19T16:24:43.520Z,100959.09
2022-11-19T16:29:43.252Z,100965.41
2022-11-19T16:34:44.621Z,100963.50
2022-11-19T16:39:50.330Z,100955.50
2022-11-19T16:44:49.358Z,100955.44
2022-11-19T16:49:58.905Z,100990.34
2022-11-19T16:54:56.386Z,101022.84
2022-11-19T16:59:56.869Z,100918.28
2022-11-19T17:04:58.391Z,101033.75
2022-11-19T17:10:26.249Z,101022.81
2022-11-19T17:15:36.259Z,101012.84
2022-11-19T17:20:50.991Z,101008.44
2022-11-19T17:25:49.766Z,100925.94
2022-11-19T17:30:49.052Z,100944.09
2022-11-19T17:35:47.495Z,100876.84
2022-11-19T17:40:47.791Z,100908.72
2022-11-19T17:45:45.194Z,100985.75
2022-11-19T17:50:51.827Z,101005.66
2022-11-19T17:55:52.736Z,100990.38
2022-11-19T18:00:51.189Z,100997.63
2022-11-19T18:05:52.374Z,100992.16
2022-11-19T18:10:50.346Z,100958.03
2022-11-19T18:15:47.559Z,100884.13
2022-11-19T18:20:44.526Z,100953.66
2022-11-19T18:25:41.924Z,100974.09
2022-11-19T18:30:40.235Z,100979.78
2022-11-19T18:35:37.288Z,100854.13
2022-11-19T18:40:36.316Z,100943.22
2022-11-19T18:45:34.400Z,100965.50
2022-11-19T18:50:33.242Z,100858.06
2022-11-19T18:55:30.719Z,100955.31
2022-11-19T19:00:27.748Z,100968.84
2022-11-19T19:05:28.681Z,100950.28
2022-11-19T19:10:26.495Z,100956.22
2022-11-19T19:15:24.394Z,100885.84
2022-11-19T19:20:21.401Z,100966.53
2022-11-19T19:25:19.445Z,100953.56
2022-11-19T19:30:18.328Z,100876.88
2022-11-19T19:35:15.767Z,100892.03
2022-11-19T19:40:15.438Z,100909.66
2022-11-19T19:45:13.418Z,100867.13
2022-11-19T19:50:11.560Z,100875.59
2022-11-19T19:55:09.664Z,100889.84
2022-11-19T20:00:08.586Z,100946.38
2022-11-19T20:05:10.380Z,100904.06
2022-11-19T20:10:10.596Z,100940.94
2022-11-19T20:15:09.959Z,100909.56
2022-11-19T20:20:08.110Z,100920.31
2022-11-19T20:25:11.041Z,100881.47
2022-11-19T20:30:12.330Z,100913.59
2022-11-19T20:35:09.613Z,100893.84
2022-11-19T20:40:09.246Z,100831.56
2022-11-19T20:45:07.737Z,100873.81
2022-11-19T20:50:05.416Z,100823.34
2022-11-19T20:55:06.652Z,100827.16
2022-11-19T21:00:06.509Z,100856.66
2022-11-19T21:05:04.098Z,100818.25
2022-11-19T21:10:06.423Z,100809.88
2022-11-19T21:15:06.571Z,100790.06
2022-11-19T21:20:03.779Z,100768.06
2022-11-19T21:25:01.135Z,100806.72
2022-11-19T21:29:58.173Z,100764.84
2022-11-19T21:34:55.936Z,100785.06
2022-11-19T21:39:52.910Z,100689.16
2022-11-19T21:44:49.910Z,100752.34
2022-11-19T21:49:46.800Z,100761.38
2022-11-19T21:54:44.394Z,100655.78
2022-11-19T21:59:41.510Z,100732.56
2022-11-19T22:04:38.578Z,100691.34
2022-11-19T22:09:35.686Z,100694.72
2022-11-19T22:14:35.965Z,100664.63
2022-11-19T22:19:33.043Z,100694.25
2022-11-19T22:24:30.258Z,100701.66
2022-11-19T22:29:27.375Z,100629.81
2022-11-19T22:34:25.262Z,100708.53
2022-11-19T22:39:22.494Z,100634.41
2022-11-19T22:44:19.874Z,100701.13
2022-11-19T22:49:16.971Z,100655.38
2022-11-19T22:54:15.516Z,100708.19
2022-11-19T22:59:12.473Z,100634.66
2022-11-19T23:04:14.059Z,100683.13
2022-11-19T23:09:11.011Z,100689.16
2022-11-19T23:14:11.035Z,100687.13
2022-11-19T23:19:09.013Z,100587.53
2022-11-19T23:24:06.504Z,100627.91
2022-11-19T23:29:04.438Z,100640.47
2022-11-19T23:34:02.410Z,100677.59
2022-11-19T23:38:59.981Z,100655.56
2022-11-19T23:43:56.822Z,100641.66
2022-11-19T23:48:55.584Z,100657.22
2022-11-19T23:53:53.289Z,100582.78
2022-11-19T23:58:56.055Z,100649.78
